Time;durP1;ratioP1;P1;durP2;ratioP2;P2;SDS_P1;SDS_P2;PMS_P1;PMS_P2;Temp;Humidity;BMP_temperature;BMP_pressure;BME280_temperature;BME280_humidity;BME280_pressure;Samples;Min_cycle;Max_cycle;Signal;HPM_P1;HPM_P2
2023/03/04 00:01:47;;;;;;;11.57;3.50;;;6.10;80.90;;;;;;5118287;27;20420;-74
2023/03/04 00:04:12;;;;;;;10.85;2.42;;;6.10;80.90;;;;;;5117891;27;20068;-74
2023/03/04 00:06:38;;;;;;;10.30;2.42;;;6.10;80.80;;;;;;5118064;27;20081;-75
2023/03/04 00:09:04;;;;;;;15.98;2.25;;;6.00;80.80;;;;;;5100825;27;20035;-74
2023/03/04 00:11:33;;;;;;;13.85;2.30;;;6.10;81.00;;;;;;5117811;27;20096;-74
2023/03/04 00:13:59;;;;;;;12.02;2.35;;;6.10;80.90;;;;;;5117838;27;20052;-74
2023/03/04 00:16:26;;;;;;;17.58;3.03;;;6.00;80.90;;;;;;5118050;27;20031;-75
2023/03/04 00:18:52;;;;;;;10.93;3.10;;;6.10;81.00;;;;;;5100999;27;20047;-75
2023/03/04 00:21:18;;;;;;;8.73;2.63;;;6.10;80.80;;;;;;5100843;27;20035;-74
2023/03/04 00:23:44;;;;;;;9.63;2.13;;;6.10;80.70;;;;;;5100668;27;20047;-75
2023/03/04 00:26:10;;;;;;;22.83;3.08;;;6.00;80.90;;;;;;5100751;27;20091;-75
2023/03/04 00:28:35;;;;;;;11.57;2.97;;;6.00;81.00;;;;;;5100373;27;20043;-74
2023/03/04 00:31:01;;;;;;;11.75;2.55;;;6.00;81.10;;;;;;5083684;27;20075;-75
2023/03/04 00:33:27;;;;;;;8.73;2.33;;;6.10;81.10;;;;;;5117399;27;20127;-74
2023/03/04 00:35:53;;;;;;;8.30;2.10;;;6.10;80.90;;;;;;5100463;27;20043;-75
2023/03/04 00:38:18;;;;;;;13.30;2.65;;;6.00;81.00;;;;;;5100922;27;20062;-75
2023/03/04 00:40:44;;;;;;;9.73;2.10;;;6.10;81.20;;;;;;5117649;27;20043;-75
2023/03/04 00:43:10;;;;;;;7.40;1.65;;;6.10;81.20;;;;;;5117322;27;20126;-75
2023/03/04 00:45:35;;;;;;;11.85;2.50;;;6.10;81.30;;;;;;5100629;27;20045;-74
2023/03/04 00:48:01;;;;;;;7.95;1.92;;;6.10;81.10;;;;;;5100601;27;20047;-74
2023/03/04 00:50:27;;;;;;;16.42;2.72;;;6.10;81.40;;;;;;5117564;27;20043;-75
2023/03/04 00:52:52;;;;;;;8.80;2.60;;;6.00;81.40;;;;;;5100508;27;20062;-74
2023/03/04 00:55:18;;;;;;;10.85;2.88;;;6.00;81.40;;;;;;5117426;27;20078;-75
2023/03/04 00:57:44;;;;;;;6.70;1.50;;;6.00;81.30;;;;;;5116819;27;20504;-75
2023/03/04 01:00:10;;;;;;;12.52;2.03;;;6.00;81.20;;;;;;5116948;27;20047;-75
2023/03/04 01:02:36;;;;;;;11.82;1.70;;;6.10;80.60;;;;;;5116787;27;20054;-75
2023/03/04 01:05:02;;;;;;;7.70;2.25;;;6.00;80.00;;;;;;5100106;27;20051;-75
2023/03/04 01:07:28;;;;;;;5.72;1.58;;;6.00;79.80;;;;;;5099850;27;20039;-74
2023/03/04 01:09:53;;;;;;;7.57;2.05;;;6.00;79.70;;;;;;5082803;27;20043;-74
2023/03/04 01:12:19;;;;;;;10.05;1.98;;;6.00;79.70;;;;;;5099765;27;20398;-75
2023/03/04 01:14:45;;;;;;;14.88;2.50;;;6.00;79.80;;;;;;5099327;27;20092;-74
2023/03/04 01:17:11;;;;;;;13.48;2.10;;;6.00;79.90;;;;;;5099888;27;20039;-75
2023/03/04 01:19:36;;;;;;;11.90;1.98;;;6.00;80.10;;;;;;5116539;27;20493;-75
2023/03/04 01:22:02;;;;;;;6.35;1.50;;;6.00;80.30;;;;;;5116764;27;20078;-73
2023/03/04 01:24:29;;;;;;;11.02;2.17;;;6.00;80.50;;;;;;5099420;27;20501;-75
2023/03/04 01:26:55;;;;;;;12.98;2.47;;;6.00;80.40;;;;;;5116320;27;20047;-75
2023/03/04 01:29:20;;;;;;;13.77;2.55;;;5.90;80.70;;;;;;5116497;27;20041;-75
2023/03/04 01:31:46;;;;;;;20.38;2.78;;;6.00;80.80;;;;;;5116519;27;20494;-75
2023/03/04 01:34:12;;;;;;;9.85;2.90;;;6.00;80.80;;;;;;5099182;27;20085;-74
2023/03/04 01:36:38;;;;;;;12.55;2.35;;;6.00;81.00;;;;;;5116465;27;20031;-75
2023/03/04 01:39:04;;;;;;;8.60;2.22;;;6.00;80.80;;;;;;5082716;27;20102;-75
2023/03/04 01:41:30;;;;;;;7.90;2.40;;;6.00;80.90;;;;;;5098976;28;20074;-75
2023/03/04 01:43:59;;;;;;;11.32;2.50;;;6.00;81.10;;;;;;5099107;27;20046;-75
2023/03/04 01:46:25;;;;;;;13.15;2.60;;;6.00;80.80;;;;;;5082607;27;20046;-75
2023/03/04 01:48:51;;;;;;;6.75;2.03;;;6.00;80.50;;;;;;5099115;27;20047;-74
2023/03/04 01:51:18;;;;;;;11.18;1.77;;;5.90;80.20;;;;;;5099144;27;20035;-75
2023/03/04 01:53:48;;;;;;;16.15;2.50;;;5.90;80.30;;;;;;5115394;27;20031;-74
2023/03/04 01:56:27;;;;;;;10.23;1.98;;;5.90;80.20;;;;;;5098595;27;20517;-75
2023/03/04 01:59:16;;;;;;;7.70;2.05;;;5.90;80.10;;;;;;5115799;27;20089;-74
2023/03/04 02:01:46;;;;;;;13.18;1.80;;;5.90;80.10;;;;;;5115646;28;20043;-75
2023/03/04 02:04:14;;;;;;;7.03;1.60;;;5.90;80.00;;;;;;5115630;27;20039;-76
2023/03/04 02:06:41;;;;;;;9.65;1.80;;;5.90;80.10;;;;;;5115971;28;20083;-75
2023/03/04 02:09:07;;;;;;;12.70;1.90;;;5.90;80.20;;;;;;5099324;28;20483;-74
2023/03/04 02:11:34;;;;;;;15.00;2.70;;;5.90;80.40;;;;;;5099732;28;20065;-75
2023/03/04 02:14:00;;;;;;;8.90;2.25;;;5.90;80.60;;;;;;5116011;28;20114;-75
2023/03/04 02:16:26;;;;;;;7.15;1.60;;;6.00;80.60;;;;;;5098821;28;20123;-75
2023/03/04 02:18:52;;;;;;;10.38;2.67;;;6.00;80.80;;;;;;5098628;28;20050;-75
2023/03/04 02:21:20;;;;;;;16.42;2.10;;;6.00;81.10;;;;;;5115739;28;20047;-75
2023/03/04 02:24:05;;;;;;;7.25;1.85;;;6.00;81.40;;;;;;5115749;28;20043;-75
2023/03/04 02:26:33;;;;;;;9.07;2.30;;;6.00;81.70;;;;;;5115867;28;20398;-74
2023/03/04 02:29:01;;;;;;;7.82;1.85;;;5.90;81.90;;;;;;5098495;28;20043;-75
2023/03/04 02:31:38;;;;;;;16.02;2.72;;;5.90;82.20;;;;;;5098823;28;20138;-75
2023/03/04 02:34:15;;;;;;;7.97;2.05;;;5.90;82.20;;;;;;5115795;28;20035;-75
2023/03/04 02:36:42;;;;;;;12.00;2.30;;;5.90;82.30;;;;;;5098757;28;20421;-76
2023/03/04 02:39:22;;;;;;;9.70;2.30;;;5.90;82.30;;;;;;5098841;28;20078;-75
2023/03/04 02:41:48;;;;;;;8.70;2.83;;;5.90;82.50;;;;;;5098534;28;20126;-75
2023/03/04 02:44:46;;;;;;;9.98;1.88;;;5.90;82.70;;;;;;5115775;28;20097;-75
2023/03/04 02:47:16;;;;;;;9.77;2.03;;;6.00;82.60;;;;;;5115620;28;20043;-74
2023/03/04 02:49:42;;;;;;;10.70;2.10;;;5.90;82.20;;;;;;5115719;28;20390;-74
2023/03/04 02:52:12;;;;;;;14.20;2.35;;;5.90;82.20;;;;;;5081625;28;20115;-75
2023/03/04 02:54:38;;;;;;;11.43;1.88;;;5.90;82.30;;;;;;5098374;28;20123;-75
2023/03/04 02:57:07;;;;;;;15.45;2.30;;;5.90;82.20;;;;;;5098342;28;20051;-75
2023/03/04 02:59:35;;;;;;;13.20;2.20;;;5.80;82.20;;;;;;5098402;28;20047;-75
2023/03/04 03:02:00;;;;;;;8.98;1.52;;;5.90;82.30;;;;;;5115346;28;20050;-75
2023/03/04 03:04:26;;;;;;;10.15;1.80;;;5.90;82.10;;;;;;5115463;27;20548;-75
2023/03/04 03:06:52;;;;;;;12.05;1.90;;;6.00;81.90;;;;;;5119026;27;20062;-75
2023/03/04 03:09:18;;;;;;;10.23;1.90;;;6.00;81.80;;;;;;5101918;27;20043;-74
2023/03/04 03:11:44;;;;;;;7.63;1.77;;;6.00;81.70;;;;;;5102170;27;20043;-75
2023/03/04 03:14:10;;;;;;;11.30;2.53;;;6.00;81.70;;;;;;5118824;27;20044;-75
2023/03/04 03:16:36;;;;;;;9.48;1.65;;;6.00;81.80;;;;;;5118814;27;20046;-74
2023/03/04 03:19:02;;;;;;;7.50;1.48;;;6.00;81.90;;;;;;5119011;27;20039;-74
2023/03/04 03:21:28;;;;;;;6.10;1.20;;;6.00;82.10;;;;;;5119079;27;20054;-75
2023/03/04 03:23:53;;;;;;;14.65;2.70;;;6.10;82.20;;;;;;5118660;27;20394;-75
2023/03/04 03:26:19;;;;;;;9.75;1.67;;;6.00;82.30;;;;;;5085142;27;20143;-75
2023/03/04 03:28:46;;;;;;;7.25;2.45;;;6.00;82.50;;;;;;5101606;27;20046;-75
2023/03/04 03:31:13;;;;;;;13.40;2.38;;;6.10;82.60;;;;;;5118822;27;20042;-75
2023/03/04 03:33:38;;;;;;;11.52;2.42;;;6.10;82.80;;;;;;5101912;27;20038;-75
2023/03/04 03:36:05;;;;;;;16.15;1.70;;;6.10;82.80;;;;;;5118920;27;20035;-75
2023/03/04 03:38:32;;;;;;;10.15;2.67;;;6.10;83.10;;;;;;5119104;27;20428;-75
2023/03/04 03:40:58;;;;;;;7.28;1.67;;;6.00;83.20;;;;;;5101812;27;20062;-75
2023/03/04 03:43:24;;;;;;;14.43;1.77;;;6.00;83.30;;;;;;5101586;27;20036;-75
2023/03/04 03:45:50;;;;;;;6.10;1.65;;;6.00;83.40;;;;;;5118722;27;20027;-75
2023/03/04 03:48:17;;;;;;;8.30;1.42;;;6.00;83.60;;;;;;5101986;27;20391;-75
2023/03/04 03:50:43;;;;;;;11.25;2.08;;;6.00;83.70;;;;;;5101420;27;20172;-74
2023/03/04 03:53:08;;;;;;;5.40;1.58;;;6.00;83.80;;;;;;5101291;27;20039;-74
2023/03/04 03:55:34;;;;;;;10.48;2.30;;;6.00;84.00;;;;;;5118914;27;20046;-74
2023/03/04 03:58:00;;;;;;;6.95;1.42;;;6.10;83.90;;;;;;5067734;27;20495;-74
2023/03/04 04:00:26;;;;;;;3.67;1.20;;;6.10;84.00;;;;;;5101243;27;20050;-75
2023/03/04 04:02:54;;;;;;;6.18;2.28;;;6.10;83.70;;;;;;5101085;27;20043;-74
2023/03/04 04:05:20;;;;;;;10.75;1.80;;;6.20;83.60;;;;;;5101293;27;20403;-75
2023/03/04 04:07:45;;;;;;;12.23;1.63;;;6.20;83.60;;;;;;5117915;27;20041;-75
2023/03/04 04:10:11;;;;;;;6.45;1.40;;;6.10;83.90;;;;;;5100937;27;20049;-75
2023/03/04 04:12:37;;;;;;;5.72;1.25;;;6.10;83.90;;;;;;5117766;27;20035;-75
2023/03/04 04:15:03;;;;;;;9.25;3.05;;;6.10;84.00;;;;;;5117817;27;20122;-74
2023/03/04 04:17:29;;;;;;;5.90;1.30;;;6.10;84.00;;;;;;5100097;27;20039;-75
2023/03/04 04:19:55;;;;;;;9.98;2.10;;;6.20;84.00;;;;;;5100883;27;20048;-74
2023/03/04 04:22:20;;;;;;;8.75;1.48;;;6.10;84.10;;;;;;5083844;27;20053;-75
2023/03/04 04:24:47;;;;;;;5.03;1.88;;;6.10;84.30;;;;;;5100947;27;20031;-74
2023/03/04 04:27:14;;;;;;;9.63;2.45;;;6.10;84.60;;;;;;5117759;27;20413;-75
2023/03/04 04:29:40;;;;;;;5.95;1.27;;;6.10;84.50;;;;;;5117377;27;20043;-74
2023/03/04 04:32:06;;;;;;;8.93;1.33;;;6.10;84.60;;;;;;5100374;27;20034;-74
2023/03/04 04:34:32;;;;;;;8.35;1.23;;;6.10;84.80;;;;;;5117334;27;20087;-75
2023/03/04 04:36:57;;;;;;;9.23;1.85;;;6.10;84.80;;;;;;5100362;27;20035;-74
2023/03/04 04:39:23;;;;;;;4.82;1.10;;;6.10;84.80;;;;;;5066909;27;20043;-75
2023/03/04 04:41:49;;;;;;;7.15;0.98;;;6.10;84.90;;;;;;5083690;27;20039;-75
2023/03/04 04:44:15;;;;;;;6.25;1.30;;;6.10;85.10;;;;;;5117360;27;20038;-75
2023/03/04 04:46:41;;;;;;;8.60;1.15;;;6.20;85.10;;;;;;5117028;27;20039;-75
2023/03/04 04:49:07;;;;;;;6.13;1.30;;;6.10;85.10;;;;;;5100244;27;20039;-75
2023/03/04 04:51:35;;;;;;;4.32;0.90;;;6.10;85.20;;;;;;5100368;27;20376;-75
2023/03/04 04:54:01;;;;;;;3.95;0.80;;;6.10;85.30;;;;;;5116992;27;20039;-75
2023/03/04 04:56:27;;;;;;;4.93;0.90;;;6.10;85.50;;;;;;5099730;27;20041;-75
2023/03/04 04:58:55;;;;;;;5.55;0.98;;;6.10;85.40;;;;;;5100006;27;20138;-74
2023/03/04 05:01:21;;;;;;;3.95;1.00;;;6.10;85.70;;;;;;5116882;27;20050;-74
2023/03/04 05:03:52;;;;;;;12.55;1.83;;;6.10;85.80;;;;;;5116772;27;20047;-74
2023/03/04 05:06:18;;;;;;;5.68;1.63;;;6.10;86.10;;;;;;5117212;27;20047;-75
2023/03/04 05:08:44;;;;;;;3.70;0.80;;;6.10;86.40;;;;;;5116677;27;20121;-75
2023/03/04 05:11:10;;;;;;;8.82;2.00;;;6.00;86.70;;;;;;5099800;27;20118;-74
2023/03/04 05:13:35;;;;;;;3.67;0.90;;;6.00;87.40;;;;;;5116629;27;20042;-74
2023/03/04 05:16:01;;;;;;;4.53;1.20;;;5.90;87.80;;;;;;5099694;27;20035;-75
2023/03/04 05:18:28;;;;;;;6.57;1.42;;;5.90;88.20;;;;;;5099520;27;20070;-75
2023/03/04 05:20:56;;;;;;;5.88;1.20;;;5.90;88.80;;;;;;5116717;27;20043;-75
2023/03/04 05:23:23;;;;;;;3.97;1.17;;;5.80;88.90;;;;;;5116305;27;20039;-74
2023/03/04 05:25:49;;;;;;;5.70;1.08;;;5.80;89.40;;;;;;5116671;27;20062;-74
2023/03/04 05:28:15;;;;;;;5.95;1.35;;;5.70;89.40;;;;;;5099503;27;20043;-74
2023/03/04 05:30:43;;;;;;;8.43;1.90;;;5.70;89.60;;;;;;5099254;27;20039;-75
2023/03/04 05:33:10;;;;;;;6.00;1.38;;;5.70;89.80;;;;;;5116209;27;20171;-74
2023/03/04 05:35:36;;;;;;;7.47;1.25;;;5.70;90.00;;;;;;5099553;27;20453;-75
2023/03/04 05:38:04;;;;;;;8.75;1.35;;;5.70;90.20;;;;;;5116220;27;20035;-75
2023/03/04 05:40:30;;;;;;;8.48;1.77;;;5.70;90.30;;;;;;5116123;27;20047;-74
2023/03/04 05:42:56;;;;;;;11.82;1.85;;;5.70;90.40;;;;;;5116105;27;20039;-75
2023/03/04 05:45:22;;;;;;;6.28;1.25;;;5.70;90.60;;;;;;5099353;27;20126;-74
2023/03/04 05:47:48;;;;;;;8.35;1.48;;;5.80;91.00;;;;;;5099093;27;20045;-75
2023/03/04 05:50:14;;;;;;;9.10;1.90;;;5.80;91.00;;;;;;5098962;27;20043;-75
2023/03/04 05:52:40;;;;;;;6.88;1.85;;;5.80;90.90;;;;;;5115971;27;20031;-73
2023/03/04 05:55:06;;;;;;;10.05;1.77;;;5.80;91.10;;;;;;5098888;27;20039;-74
2023/03/04 05:57:32;;;;;;;12.50;1.98;;;5.80;91.20;;;;;;5115977;27;20051;-74
2023/03/04 05:59:58;;;;;;;8.43;1.80;;;5.80;91.20;;;;;;5098960;27;20092;-74
2023/03/04 06:02:23;;;;;;;7.45;2.67;;;5.80;91.40;;;;;;5099419;28;20149;-75
2023/03/04 06:04:49;;;;;;;12.40;3.05;;;5.80;91.40;;;;;;5116183;27;20165;-74
2023/03/04 06:07:15;;;;;;;8.15;1.73;;;5.80;91.40;;;;;;5116089;27;20375;-75
2023/03/04 06:09:43;;;;;;;12.70;1.75;;;5.80;91.40;;;;;;5099578;27;20043;-75
2023/03/04 06:12:11;;;;;;;14.18;2.58;;;5.80;91.50;;;;;;5116835;28;20047;-75
2023/03/04 06:14:36;;;;;;;9.13;1.83;;;5.80;91.60;;;;;;5115948;28;20043;-75
2023/03/04 06:17:02;;;;;;;9.93;2.30;;;5.80;91.50;;;;;;5098822;28;20050;-74
2023/03/04 06:19:28;;;;;;;7.45;1.77;;;5.80;91.60;;;;;;5098235;28;20047;-75
2023/03/04 06:21:54;;;;;;;7.65;2.10;;;5.80;91.70;;;;;;5115673;28;20046;-74
2023/03/04 06:24:20;;;;;;;12.52;2.00;;;5.90;91.80;;;;;;5115463;28;20438;-74
2023/03/04 06:26:45;;;;;;;22.10;2.58;;;5.90;91.80;;;;;;5081318;28;20153;-74
2023/03/04 06:29:11;;;;;;;8.98;1.83;;;5.90;91.80;;;;;;5064716;28;20046;-75
2023/03/04 06:31:38;;;;;;;6.20;1.63;;;5.90;92.10;;;;;;5115131;28;20027;-74
2023/03/04 06:34:04;;;;;;;5.75;1.35;;;5.90;92.20;;;;;;5098833;28;20039;-75
2023/03/04 06:36:29;;;;;;;7.13;1.83;;;5.90;92.30;;;;;;5115782;28;20035;-75
2023/03/04 06:38:55;;;;;;;4.22;1.40;;;5.90;92.50;;;;;;5115838;27;20061;-74
2023/03/04 06:41:21;;;;;;;6.07;1.45;;;5.90;92.50;;;;;;5101920;27;20494;-75
2023/03/04 06:43:47;;;;;;;6.78;2.13;;;5.80;92.60;;;;;;5102390;27;20120;-75
2023/03/04 06:46:12;;;;;;;5.40;1.52;;;5.80;92.90;;;;;;5102772;27;20042;-74
2023/03/04 06:48:38;;;;;;;7.95;1.80;;;5.80;92.80;;;;;;5119453;27;20506;-75
2023/03/04 06:51:08;;;;;;;8.13;1.73;;;5.70;92.80;;;;;;5102460;27;20035;-75
2023/03/04 06:53:34;;;;;;;12.57;4.97;;;5.70;92.90;;;;;;5119576;27;20461;-75
2023/03/04 06:56:00;;;;;;;7.55;4.40;;;5.70;93.00;;;;;;5085831;27;20475;-75
2023/03/04 06:58:26;;;;;;;6.75;4.80;;;5.70;93.00;;;;;;5119096;27;20051;-75
2023/03/04 07:00:51;;;;;;;5.95;3.10;;;5.70;93.10;;;;;;5119244;27;20046;-75
2023/03/04 07:03:17;;;;;;;6.43;1.63;;;5.80;93.10;;;;;;5119196;27;20046;-75
2023/03/04 07:05:43;;;;;;;9.95;3.03;;;5.80;93.20;;;;;;5102166;27;20042;-74
2023/03/04 07:08:09;;;;;;;9.82;2.00;;;5.80;93.10;;;;;;5068991;27;20039;-74
2023/03/04 07:10:34;;;;;;;3.25;1.60;;;5.80;93.20;;;;;;5119070;27;20391;-75
2023/03/04 07:13:00;;;;;;;9.30;1.95;;;5.80;93.20;;;;;;5119248;27;20449;-74
2023/03/04 07:15:26;;;;;;;12.23;2.78;;;5.80;93.20;;;;;;5102169;27;20058;-75
2023/03/04 07:17:52;;;;;;;12.00;2.75;;;5.90;93.20;;;;;;5085179;27;20071;-74
2023/03/04 07:20:18;;;;;;;12.68;3.03;;;5.90;93.20;;;;;;5101797;27;20074;-74
2023/03/04 07:22:44;;;;;;;9.82;2.33;;;6.00;93.40;;;;;;5102223;27;20043;-73
2023/03/04 07:25:09;;;;;;;13.93;2.28;;;6.10;93.40;;;;;;5101862;27;20554;-75
2023/03/04 07:27:37;;;;;;;10.38;1.92;;;6.10;93.40;;;;;;5101784;27;20035;-75
2023/03/04 07:30:04;;;;;;;4.70;1.27;;;6.10;93.30;;;;;;5101645;27;20483;-75
2023/03/04 07:32:32;;;;;;;5.18;1.25;;;6.10;93.40;;;;;;5101703;27;20126;-75
2023/03/04 07:34:58;;;;;;;7.05;1.52;;;6.10;93.40;;;;;;5102427;27;20038;-75
2023/03/04 07:37:23;;;;;;;7.07;1.50;;;6.10;93.50;;;;;;5101710;27;20432;-75
2023/03/04 07:39:49;;;;;;;6.88;1.10;;;6.10;93.50;;;;;;5101718;27;20046;-75
2023/03/04 07:42:15;;;;;;;7.95;1.98;;;6.10;93.60;;;;;;5118934;27;20038;-75
2023/03/04 07:44:41;;;;;;;5.32;1.20;;;6.10;93.70;;;;;;5118683;27;20391;-74
2023/03/04 07:47:06;;;;;;;5.50;1.33;;;6.10;93.70;;;;;;5101880;27;20107;-74
2023/03/04 07:49:32;;;;;;;5.35;1.17;;;6.10;93.70;;;;;;5084374;27;20043;-74
2023/03/04 07:52:01;;;;;;;8.98;2.00;;;6.20;93.80;;;;;;5100198;27;20042;-75
2023/03/04 07:54:27;;;;;;;11.75;1.98;;;6.10;93.70;;;;;;5118665;27;20039;-75
2023/03/04 07:56:53;;;;;;;9.70;2.00;;;6.10;93.70;;;;;;5097832;28;20472;-75
2023/03/04 07:59:18;;;;;;;10.80;2.78;;;6.10;93.70;;;;;;5097950;28;20040;-75
2023/03/04 08:01:44;;;;;;;9.43;1.77;;;6.10;93.70;;;;;;5097912;28;20122;-75
2023/03/04 08:04:10;;;;;;;11.50;1.92;;;6.10;93.60;;;;;;5114736;28;20043;-76
2023/03/04 08:06:35;;;;;;;8.07;1.83;;;6.10;93.50;;;;;;5097635;28;20039;-75
2023/03/04 08:09:05;;;;;;;8.88;1.75;;;6.10;93.40;;;;;;5097618;28;20061;-75
2023/03/04 08:11:31;;;;;;;12.88;2.03;;;6.10;93.10;;;;;;5114502;28;20040;-73
2023/03/04 08:13:58;;;;;;;14.93;2.20;;;6.20;92.80;;;;;;5114441;28;20031;-75
2023/03/04 08:16:24;;;;;;;7.72;1.85;;;6.20;92.50;;;;;;5114445;28;20697;-75
2023/03/04 08:19:01;;;;;;;5.25;1.40;;;6.20;92.10;;;;;;5114601;28;20043;-74
2023/03/04 08:21:28;;;;;;;10.38;1.60;;;6.30;91.80;;;;;;5114768;28;20032;-75
2023/03/04 08:23:56;;;;;;;9.77;1.92;;;6.30;91.60;;;;;;5114508;28;20035;-75
2023/03/04 08:26:29;;;;;;;8.23;1.25;;;6.40;91.10;;;;;;5114109;28;20035;-74
2023/03/04 08:28:56;;;;;;;5.15;1.10;;;6.40;90.80;;;;;;5114502;28;20428;-75
2023/03/04 08:31:22;;;;;;;7.15;1.65;;;6.40;90.20;;;;;;5114147;28;20123;-75
2023/03/04 08:33:48;;;;;;;7.22;1.80;;;6.50;89.80;;;;;;5097272;28;20123;-75
2023/03/04 08:36:14;;;;;;;6.78;1.55;;;6.50;88.70;;;;;;5113944;28;20061;-74
2023/03/04 08:38:40;;;;;;;10.68;1.92;;;6.60;88.20;;;;;;5114035;28;20042;-75
2023/03/04 08:41:06;;;;;;;11.32;1.80;;;6.50;88.20;;;;;;5114185;28;20039;-75
2023/03/04 08:43:33;;;;;;;10.93;3.13;;;6.60;88.30;;;;;;5114003;28;20134;-74
2023/03/04 08:45:59;;;;;;;9.38;2.20;;;6.50;88.60;;;;;;5096826;28;20040;-75
2023/03/04 08:48:25;;;;;;;12.77;1.95;;;6.50;88.70;;;;;;5113910;28;20032;-73
2023/03/04 08:50:51;;;;;;;15.43;3.15;;;6.60;88.80;;;;;;5096558;28;20514;-77
2023/03/04 08:53:18;;;;;;;17.20;3.40;;;6.60;88.60;;;;;;5113608;28;20035;-74
2023/03/04 08:55:44;;;;;;;13.20;2.38;;;6.60;88.60;;;;;;5096788;28;20118;-75
2023/03/04 08:58:10;;;;;;;13.07;4.13;;;6.60;88.60;;;;;;5113433;28;20043;-76
2023/03/04 09:00:41;;;;;;;16.95;3.60;;;6.60;88.60;;;;;;5096723;28;20044;-77
2023/03/04 09:03:06;;;;;;;14.52;2.90;;;6.70;88.50;;;;;;5113336;28;20153;-77
2023/03/04 09:05:32;;;;;;;15.70;3.00;;;6.70;88.40;;;;;;5113514;28;20126;-78
2023/03/04 09:07:58;;;;;;;9.93;3.17;;;6.70;88.30;;;;;;5096940;28;20031;-78
2023/03/04 09:10:25;;;;;;;19.35;3.60;;;6.70;88.30;;;;;;5096651;28;20475;-78
2023/03/04 09:12:50;;;;;;;21.35;3.97;;;6.70;88.10;;;;;;5096858;28;20643;-77
2023/03/04 09:15:16;;;;;;;25.63;4.13;;;6.70;88.00;;;;;;5079406;28;20042;-77
2023/03/04 09:17:42;;;;;;;10.88;3.03;;;6.70;88.00;;;;;;5096194;28;20043;-76
2023/03/04 09:20:09;;;;;;;13.63;2.42;;;6.70;88.00;;;;;;5113262;28;20040;-76
2023/03/04 09:22:36;;;;;;;18.63;3.42;;;6.80;87.90;;;;;;5113369;28;20456;-78
2023/03/04 09:25:02;;;;;;;16.33;3.55;;;6.80;87.90;;;;;;5113107;28;20039;-79
2023/03/04 09:27:28;;;;;;;22.30;3.50;;;6.80;88.00;;;;;;5113517;28;20418;-79
2023/03/04 09:29:54;;;;;;;20.40;3.42;;;6.80;87.80;;;;;;5079489;28;20038;-79
2023/03/04 09:32:19;;;;;;;19.15;4.45;;;6.90;87.60;;;;;;5062644;28;20086;-77
2023/03/04 09:34:45;;;;;;;23.15;3.30;;;6.80;87.10;;;;;;5096071;28;20040;-77
2023/03/04 09:37:11;;;;;;;12.65;2.92;;;6.80;86.00;;;;;;5079431;28;20066;-77
2023/03/04 09:39:37;;;;;;;15.75;3.45;;;6.80;85.80;;;;;;5096032;28;20043;-77
2023/03/04 09:42:05;;;;;;;18.23;4.57;;;6.80;85.70;;;;;;5113218;28;20043;-78
2023/03/04 09:44:38;;;;;;;19.58;3.35;;;6.80;85.30;;;;;;5095748;28;20495;-78
2023/03/04 09:47:15;;;;;;;21.27;3.25;;;6.90;84.90;;;;;;5112657;28;20039;-76
2023/03/04 09:49:44;;;;;;;18.05;3.92;;;6.90;84.90;;;;;;5112706;28;20039;-78
2023/03/04 09:52:25;;;;;;;16.58;3.58;;;6.90;84.80;;;;;;5095567;28;20039;-77
2023/03/04 09:55:02;;;;;;;17.77;4.13;;;7.00;84.30;;;;;;5096217;28;20035;-77
2023/03/04 09:57:37;;;;;;;14.88;2.50;;;7.00;82.90;;;;;;5095295;28;20081;-77
2023/03/04 10:00:11;;;;;;;9.20;2.25;;;7.00;81.80;;;;;;5112510;28;20100;-77
2023/03/04 10:03:03;;;;;;;12.00;2.50;;;7.00;81.40;;;;;;5095941;28;20047;-78
2023/03/04 10:05:33;;;;;;;24.02;3.55;;;7.00;81.60;;;;;;5095903;28;20040;-78
2023/03/04 10:08:11;;;;;;;11.20;2.60;;;7.00;81.40;;;;;;5095292;28;20558;-77
2023/03/04 10:10:39;;;;;;;11.50;2.08;;;7.00;81.10;;;;;;5112433;28;20470;-78
2023/03/04 10:13:13;;;;;;;12.98;2.38;;;7.00;80.80;;;;;;5095519;28;20031;-77
2023/03/04 10:15:47;;;;;;;12.85;3.20;;;7.10;80.00;;;;;;5112196;28;20100;-75
2023/03/04 10:18:25;;;;;;;8.88;1.63;;;7.10;80.50;;;;;;5095600;28;20573;-77
2023/03/04 10:21:23;;;;;;;6.32;1.67;;;7.00;81.50;;;;;;5112529;28;20096;-76
2023/03/04 10:23:49;;;;;;;7.13;1.48;;;7.00;82.10;;;;;;5108087;28;20051;-76
2023/03/04 10:26:19;;;;;;;5.13;1.25;;;7.00;82.70;;;;;;5095833;28;20047;-76
2023/03/04 10:28:46;;;;;;;6.63;1.38;;;7.00;82.70;;;;;;5112213;28;20051;-77
2023/03/04 10:31:14;;;;;;;5.20;1.02;;;7.00;82.40;;;;;;5112686;28;20074;-77
2023/03/04 10:33:40;;;;;;;4.47;1.13;;;7.00;82.20;;;;;;5095634;28;20039;-77
2023/03/04 10:36:30;;;;;;;5.32;0.70;;;7.10;82.30;;;;;;5112378;28;20548;-77
2023/03/04 10:39:16;;;;;;;2.65;0.80;;;7.10;81.80;;;;;;5095435;28;20085;-76
2023/03/04 10:41:52;;;;;;;3.63;0.70;;;7.30;81.20;;;;;;5112316;28;20043;-76
2023/03/04 10:44:18;;;;;;;4.10;0.75;;;7.40;81.00;;;;;;5112669;28;20067;-75
2023/03/04 10:46:46;;;;;;;7.07;2.95;;;7.60;80.80;;;;;;5112164;28;20070;-76
2023/03/04 10:49:18;;;;;;;6.68;1.17;;;7.60;79.80;;;;;;5095495;28;20040;-76
2023/03/04 10:52:02;;;;;;;9.88;1.48;;;7.60;80.00;;;;;;5095378;28;20035;-77
2023/03/04 10:54:35;;;;;;;7.28;1.85;;;7.60;78.90;;;;;;5112476;28;20032;-76
2023/03/04 10:57:18;;;;;;;8.90;1.93;;;7.50;78.10;;;;;;5112306;28;20059;-77
2023/03/04 10:59:52;;;;;;;8.18;2.05;;;7.50;78.40;;;;;;5112250;28;20051;-76
2023/03/04 11:02:32;;;;;;;7.55;2.05;;;7.60;79.00;;;;;;5112514;28;20040;-77
2023/03/04 11:05:14;;;;;;;6.18;1.60;;;7.60;79.00;;;;;;5112566;28;20070;-77
2023/03/04 11:07:42;;;;;;;8.85;1.80;;;7.60;79.00;;;;;;5112433;28;20475;-78
2023/03/04 11:10:12;;;;;;;11.48;3.28;;;7.70;79.00;;;;;;5094947;28;20043;-77
2023/03/04 11:12:38;;;;;;;11.10;2.00;;;7.70;78.50;;;;;;5112421;28;20062;-76
2023/03/04 11:15:17;;;;;;;9.02;1.63;;;7.70;78.30;;;;;;5095420;28;20464;-77
2023/03/04 11:17:49;;;;;;;10.77;1.95;;;7.70;78.50;;;;;;5112309;28;20040;-76
2023/03/04 11:20:28;;;;;;;15.38;4.28;;;7.60;78.60;;;;;;5112298;28;20036;-77
2023/03/04 11:22:58;;;;;;;12.38;3.05;;;7.60;78.40;;;;;;5112020;28;20035;-77
2023/03/04 11:25:34;;;;;;;11.55;2.28;;;7.50;78.50;;;;;;5095299;28;20048;-77
2023/03/04 11:28:18;;;;;;;8.90;1.65;;;7.50;78.70;;;;;;5115652;28;20041;-77
2023/03/04 11:30:50;;;;;;;14.07;2.13;;;7.50;78.20;;;;;;5098410;28;20135;-77
2023/03/04 11:33:16;;;;;;;7.68;2.15;;;7.60;77.70;;;;;;5115903;28;20039;-76
2023/03/04 11:36:09;;;;;;;18.27;3.10;;;7.60;77.20;;;;;;5115525;28;20042;-77
2023/03/04 11:38:39;;;;;;;13.00;2.30;;;7.60;76.60;;;;;;5115387;28;20039;-77
2023/03/04 11:41:12;;;;;;;9.48;2.42;;;7.80;76.50;;;;;;5115422;28;20105;-76
2023/03/04 11:43:41;;;;;;;14.57;3.05;;;7.90;77.60;;;;;;5115251;28;20043;-76
2023/03/04 11:46:28;;;;;;;8.30;1.98;;;7.80;76.80;;;;;;5115104;28;20055;-76
2023/03/04 11:49:05;;;;;;;13.05;3.38;;;7.80;77.00;;;;;;5098217;28;20051;-75
2023/03/04 11:51:45;;;;;;;7.57;1.88;;;7.80;75.90;;;;;;5115388;28;20035;-75
2023/03/04 11:54:27;;;;;;;14.35;2.88;;;7.90;76.30;;;;;;5115221;28;20071;-75
2023/03/04 11:57:00;;;;;;;9.45;2.58;;;7.90;76.80;;;;;;5114878;28;20048;-77
2023/03/04 11:59:36;;;;;;;15.45;2.58;;;8.00;76.60;;;;;;5098091;28;20047;-76
2023/03/04 12:02:13;;;;;;;13.30;2.63;;;8.10;75.40;;;;;;5115370;28;20046;-77
2023/03/04 12:05:17;;;;;;;12.43;2.55;;;8.10;75.50;;;;;;5115766;28;20128;-77
2023/03/04 12:08:14;;;;;;;13.80;2.30;;;8.30;75.90;;;;;;5098163;28;20499;-78
2023/03/04 12:11:15;;;;;;;11.52;1.80;;;8.30;76.20;;;;;;5115153;28;20075;-77
2023/03/04 12:13:59;;;;;;;9.80;2.75;;;8.20;74.10;;;;;;5097286;28;20510;-78
2023/03/04 12:16:34;;;;;;;11.23;2.25;;;8.20;73.60;;;;;;5097865;28;20042;-77
2023/03/04 12:19:27;;;;;;;11.13;2.60;;;8.20;73.60;;;;;;5114777;28;20075;-78
2023/03/04 12:22:14;;;;;;;12.82;2.92;;;8.20;73.80;;;;;;5114727;28;20513;-79
2023/03/04 12:25:01;;;;;;;15.05;3.53;;;8.10;73.10;;;;;;5097538;28;20031;-77
2023/03/04 12:27:29;;;;;;;12.52;3.28;;;7.90;72.20;;;;;;5114596;28;20048;-79
2023/03/04 12:30:12;;;;;;;13.30;2.47;;;7.80;71.40;;;;;;5114409;28;20043;-80
2023/03/04 12:33:07;;;;;;;11.03;3.37;;;7.70;71.00;;;;;;5114601;28;20039;-79
2023/03/04 12:35:43;;;;;;;11.68;2.58;;;7.70;70.90;;;;;;5084717;28;20288;-78
2023/03/04 12:38:21;;;;;;;14.55;2.85;;;7.70;70.90;;;;;;5114096;28;20036;-79
2023/03/04 12:40:50;;;;;;;12.45;2.10;;;7.80;71.00;;;;;;5114587;28;20047;-80
2023/03/04 12:43:54;;;;;;;8.90;2.33;;;7.70;70.90;;;;;;5114407;28;20039;-80
2023/03/04 12:46:43;;;;;;;9.00;2.30;;;7.70;70.80;;;;;;5083617;28;20051;-81
2023/03/04 12:49:50;;;;;;;9.65;2.15;;;7.80;70.00;;;;;;5097146;28;20040;-80
2023/03/04 12:52:48;;;;;;;10.07;1.98;;;7.80;69.60;;;;;;5055790;28;20043;-79
2023/03/04 12:55:17;;;;;;;11.48;2.53;;;8.20;69.70;;;;;;5055865;28;20033;-78
2023/03/04 12:57:45;;;;;;;15.27;4.18;;;8.40;69.10;;;;;;5097337;28;20043;-79
2023/03/04 13:00:32;;;;;;;9.52;1.95;;;8.40;68.60;;;;;;5113932;28;20082;-82
2023/03/04 13:03:16;;;;;;;15.07;3.78;;;8.40;69.20;;;;;;5097140;28;20043;-83
2023/03/04 13:05:59;;;;;;;9.80;3.00;;;8.40;70.10;;;;;;5097175;28;20146;-79